地図

経路データ

SID SEASON NUMBER BASIN SUBBASIN NAME ISO_TIME NATURE LAT LON WMO_WIND WMO_PRES WMO_AGENCY TRACK_TYPE DIST2LAND LANDFALL IFLAG USA_AGENCY USA_ATCF_ID USA_LAT USA_LON USA_RECORD USA_STATUS USA_WIND USA_PRES USA_SSHS USA_R34_NE USA_R34_SE USA_R34_SW USA_R34_NW USA_R50_NE USA_R50_SE USA_R50_SW USA_R50_NW USA_R64_NE USA_R64_SE USA_R64_SW USA_R64_NW USA_POCI USA_ROCI USA_RMW USA_EYE TOKYO_LAT TOKYO_LON TOKYO_GRADE TOKYO_WIND TOKYO_PRES TOKYO_R50_DIR TOKYO_R50_LONG TOKYO_R50_SHORT TOKYO_R30_DIR TOKYO_R30_LONG TOKYO_R30_SHORT TOKYO_LAND CMA_LAT CMA_LON CMA_CAT CMA_WIND CMA_PRES HKO_LAT HKO_LON HKO_CAT HKO_WIND HKO_PRES NEWDELHI_LAT NEWDELHI_LON NEWDELHI_GRADE NEWDELHI_WIND NEWDELHI_PRES NEWDELHI_CI NEWDELHI_DP NEWDELHI_POCI REUNION_LAT REUNION_LON REUNION_TYPE REUNION_WIND REUNION_PRES REUNION_TNUM REUNION_CI REUNION_RMW REUNION_R34_NE REUNION_R34_SE REUNION_R34_SW REUNION_R34_NW REUNION_R50_NE REUNION_R50_SE REUNION_R50_SW REUNION_R50_NW REUNION_R64_NE REUNION_R64_SE REUNION_R64_SW REUNION_R64_NW BOM_LAT BOM_LON BOM_TYPE BOM_WIND BOM_PRES BOM_TNUM BOM_CI BOM_RMW BOM_R34_NE BOM_R34_SE BOM_R34_SW BOM_R34_NW BOM_R50_NE BOM_R50_SE BOM_R50_SW BOM_R50_NW BOM_R64_NE BOM_R64_SE BOM_R64_SW BOM_R64_NW BOM_ROCI BOM_POCI BOM_EYE BOM_POS_METHOD BOM_PRES_METHOD NADI_LAT NADI_LON NADI_CAT NADI_WIND NADI_PRES WELLINGTON_LAT WELLINGTON_LON WELLINGTON_WIND WELLINGTON_PRES DS824_LAT DS824_LON DS824_STAGE DS824_WIND DS824_PRES TD9636_LAT TD9636_LON TD9636_STAGE TD9636_WIND TD9636_PRES TD9635_LAT TD9635_LON TD9635_WIND TD9635_PRES TD9635_ROCI NEUMANN_LAT NEUMANN_LON NEUMANN_CLASS NEUMANN_WIND NEUMANN_PRES MLC_LAT MLC_LON MLC_CLASS MLC_WIND MLC_PRES USA_GUST BOM_GUST BOM_GUST_PER REUNION_GUST REUNION_GUST_PER USA_SEAHGT USA_SEARAD_NE USA_SEARAD_SE USA_SEARAD_SW USA_SEARAD_NW STORM_SPEED STORM_DIR
1931317N13134 1931 56 WP MM NOT_NAMED 1931-11-13 10:00:00 NR 13.5000 133.500 main 879 838 __________O___ -1 13.5000 133.500 7 13 282
1931317N13134 1931 56 WP MM NOT_NAMED 1931-11-13 12:00:00 NR 13.5889 133.078 main 838 777 __________P___ -1 13.5889 133.078 7 12 282
1931317N13134 1931 56 WP MM NOT_NAMED 1931-11-13 15:00:00 NR 13.7195 132.465 main 777 716 __________P___ -1 13.7195 132.465 7 12 283
1931317N13134 1931 56 WP MM NOT_NAMED 1931-11-13 18:00:00 NR 13.8447 131.906 main 716 670 __________P___ -1 13.8447 131.906 7 10 284
1931317N13134 1931 56 WP MM NOT_NAMED 1931-11-13 21:00:00 NR 13.9626 131.433 main 670 660 __________P___ -1 13.9626 131.433 7 9 285
1931317N13134 1931 56 WP MM NOT_NAMED 1931-11-13 22:00:00 NR 14.0000 131.300 main 660 639 __________O___ -1 14.0000 131.300 7 7 287
1931317N13134 1931 56 WP MM NOT_NAMED 1931-11-14 00:00:00 NR 14.0718 131.076 main 642 616 __________P___ -1 14.0718 131.076 7 6 291
1931317N13134 1931 56 WP MM NOT_NAMED 1931-11-14 03:00:00 NR 14.1737 130.821 main 616 600 __________P___ -1 14.1737 130.821 7 5 295
1931317N13134 1931 56 WP MM NOT_NAMED 1931-11-14 06:00:00 NR 14.2714 130.629 main 600 590 __________P___ -1 14.2714 130.629 7 4 299
1931317N13134 1931 56 WP MM NOT_NAMED 1931-11-14 09:00:00 NR 14.3677 130.459 main 594 584 __________P___ -1 14.3677 130.459 7 4 300
1931317N13134 1931 56 WP MM NOT_NAMED 1931-11-14 10:00:00 NR 14.4000 130.400 main 584 575 __________O___ -1 14.4000 130.400 7 4 292
1931317N13134 1931 56 WP MM NOT_NAMED 1931-11-14 12:00:00 NR 14.4402 130.276 main 575 560 __________P___ -1 14.4402 130.276 7 4 288
1931317N13134 1931 56 WP MM NOT_NAMED 1931-11-14 15:00:00 NR 14.4999 130.090 main 560 546 __________P___ -1 14.4999 130.090 7 4 291
1931317N13134 1931 56 WP MM NOT_NAMED 1931-11-14 18:00:00 NR 14.5870 129.878 main 546 524 __________P___ -1 14.5870 129.878 7 5 297
1931317N13134 1931 56 WP MM NOT_NAMED 1931-11-14 21:00:00 NR 14.7329 129.608 main 524 521 __________P___ -1 14.7329 129.608 7 6 300
1931317N13134 1931 56 WP MM NOT_NAMED 1931-11-14 22:00:00 NR 14.8000 129.500 main 521 501 __________O___ -1 14.8000 129.500 7 9 300
1931317N13134 1931 56 WP MM NOT_NAMED 1931-11-15 00:00:00 NR 14.9612 129.204 main 508 482 __________P___ -1 14.9612 129.204 7 11 301
1931317N13134 1931 56 WP MM NOT_NAMED 1931-11-15 03:00:00 NR 15.2654 128.697 main 488 450 __________P___ -1 15.2654 128.697 7 12 304
1931317N13134 1931 56 WP MM NOT_NAMED 1931-11-15 06:00:00 NR 15.6329 128.178 main 450 425 __________P___ -1 15.6329 128.178 7 12 310
1931317N13134 1931 56 WP MM NOT_NAMED 1931-11-15 09:00:00 NR 16.0513 127.724 main 431 422 __________P___ -1 16.0513 127.724 7 12 316
1931317N13134 1931 56 WP MM NOT_NAMED 1931-11-15 10:00:00 NR 16.2000 127.600 main 429 427 __________O___ -1 16.2000 127.600 7 11 328
1931317N13134 1931 56 WP MM NOT_NAMED 1931-11-15 12:00:00 NR 16.5143 127.421 main 434 434 __________P___ -1 16.5143 127.421 7 11 337
1931317N13134 1931 56 WP MM NOT_NAMED 1931-11-15 15:00:00 NR 17.0245 127.240 main 457 465 __________P___ -1 17.0245 127.240 7 11 346
1931317N13134 1931 56 WP MM NOT_NAMED 1931-11-15 18:00:00 NR 17.5476 127.143 main 491 493 __________P___ -1 17.5476 127.143 7 10 353
1931317N13134 1931 56 WP MM NOT_NAMED 1931-11-15 21:00:00 NR 18.0459 127.104 main 500 503 __________P___ -1 18.0459 127.104 7 10 356
1931317N13134 1931 56 WP MM NOT_NAMED 1931-11-15 22:00:00 NR 18.2000 127.100 main 505 505 __________O___ -1 18.2000 127.100 7 8 355
1931317N13134 1931 56 WP MM NOT_NAMED 1931-11-16 00:00:00 NR 18.4649 127.074 main 506 506 __________P___ -1 18.4649 127.074 7 8 0
1931317N13134 1931 56 WP MM NOT_NAMED 1931-11-16 03:00:00 NR 18.8244 127.074 main 507 507 __________P___ -1 18.8244 127.074 7 7 4
1931317N13134 1931 56 WP MM NOT_NAMED 1931-11-16 06:00:00 NR 19.1579 127.110 main 513 513 __________P___ -1 19.1579 127.110 7 7 8
1931317N13134 1931 56 WP MM NOT_NAMED 1931-11-16 09:00:00 NR 19.4873 127.174 main 529 529 __________P___ -1 19.4873 127.174 7 7 11
1931317N13134 1931 56 WP MM NOT_NAMED 1931-11-16 10:00:00 NR 19.6000 127.200 main 532 532 __________O___ -1 19.6000 127.200 7 7 9
1931317N13134 1931 56 WP MM NOT_NAMED 1931-11-16 12:00:00 NR 19.8495 127.234 main 538 541 __________P___ -1 19.8495 127.234 7 8 9
1931317N13134 1931 56 WP MM NOT_NAMED 1931-11-16 15:00:00 NR 20.2301 127.303 main 561 565 __________P___ -1 20.2301 127.303 7 8 12
1931317N13134 1931 56 WP MM NOT_NAMED 1931-11-16 18:00:00 NR 20.6102 127.403 main 588 588 __________P___ -1 20.6102 127.403 7 8 17
1931317N13134 1931 56 WP MM NOT_NAMED 1931-11-16 21:00:00 NR 20.9804 127.543 main 617 626 __________P___ -1 20.9804 127.543 7 8 21
1931317N13134 1931 56 WP MM NOT_NAMED 1931-11-16 22:00:00 NR 21.1000 127.600 main 631 631 __________O___ -1 21.1000 127.600 7 8 24
1931317N13134 1931 56 WP MM NOT_NAMED 1931-11-17 00:00:00 NR 21.3278 127.709 main 651 651 __________P___ -1 21.3278 127.709 7 8 27
1931317N13134 1931 56 WP MM NOT_NAMED 1931-11-17 03:00:00 NR 21.6570 127.910 main 686 686 __________P___ -1 21.6570 127.910 7 8 33
1931317N13134 1931 56 WP MM NOT_NAMED 1931-11-17 06:00:00 NR 21.9769 128.164 main 701 696 __________P___ -1 21.9769 128.164 7 8 40
1931317N13134 1931 56 WP MM NOT_NAMED 1931-11-17 09:00:00 NR 22.2939 128.479 main 716 716 __________P___ -1 22.2939 128.479 7 9 44
1931317N13134 1931 56 WP MM NOT_NAMED 1931-11-17 10:00:00 NR 22.4000 128.600 main 722 722 __________O___ -1 22.4000 128.600 7 9 47
1931317N13134 1931 56 WP MM NOT_NAMED 1931-11-17 12:00:00 NR 22.6005 128.840 main 734 740 __________P___ -1 22.6005 128.840 7 9 50
1931317N13134 1931 56 WP MM NOT_NAMED 1931-11-17 15:00:00 NR 22.9010 129.256 main 773 771 __________P___ -1 22.9010 129.256 7 10 53
1931317N13134 1931 56 WP MM NOT_NAMED 1931-11-17 18:00:00 NR 23.2181 129.741 main 805 813 __________P___ -1 23.2181 129.741 7 12 55
1931317N13134 1931 56 WP MM NOT_NAMED 1931-11-17 21:00:00 NR 23.5711 130.298 main 827 815 __________P___ -1 23.5711 130.298 7 13 55
1931317N13134 1931 56 WP MM NOT_NAMED 1931-11-17 22:00:00 NR 23.7000 130.500 main 815 781 __________O___ -1 23.7000 130.500 7 14 54
1931317N13134 1931 56 WP MM NOT_NAMED 1931-11-18 00:00:00 NR 23.9932 130.925 main 781 731 __________P___ -1 23.9932 130.925 7 15 53
1931317N13134 1931 56 WP MM NOT_NAMED 1931-11-18 03:00:00 NR 24.4709 131.627 main 731 690 __________P___ -1 24.4709 131.627 7 16 54
1931317N13134 1931 56 WP MM NOT_NAMED 1931-11-18 06:00:00 NR 24.9661 132.378 main 690 664 __________P___ -1 24.9661 132.378 7 17 55
1931317N13134 1931 56 WP MM NOT_NAMED 1931-11-18 09:00:00 NR 25.4477 133.146 main 667 658 __________P___ -1 25.4477 133.146 7 17 56
1931317N13134 1931 56 WP MM NOT_NAMED 1931-11-18 10:00:00 NR 25.6000 133.400 main 658 649 __________O___ -1 25.6000 133.400 7 16 57
1931317N13134 1931 56 WP MM NOT_NAMED 1931-11-18 12:00:00 NR 25.8877 133.900 main 649 644 __________P___ -1 25.8877 133.900 7 16 58
1931317N13134 1931 56 WP MM NOT_NAMED 1931-11-18 15:00:00 NR 26.2827 134.633 main 647 648 __________P___ -1 26.2827 134.633 7 15 60
1931317N13134 1931 56 WP MM NOT_NAMED 1931-11-18 18:00:00 NR 26.6454 135.351 main 661 652 __________P___ -1 26.6454 135.351 7 15 61
1931317N13134 1931 56 WP MM NOT_NAMED 1931-11-18 21:00:00 NR 26.9881 136.063 main 669 668 __________P___ -1 26.9881 136.063 7 14 62
1931317N13134 1931 56 WP MM NOT_NAMED 1931-11-18 22:00:00 NR 27.1000 136.300 main 674 __________O___ -1 27.1000 136.300 7 14 62

デジタル台風データ・検索

IBTrACS Databaseについて

本データベースは、米国NOAAが公開する1842年以降の世界の熱帯低気圧のベストトラックデータアーカイブInternational Best Track Archive for Climate Stewardship (IBTrACS)を、ウェブで閲覧しやすい形式に変換したものです。

最終更新日:2021-12-08